createdAt,value
2022-12-28T00:01:52.403Z,97889.03
2022-12-28T00:03:56.144Z,97894.34
2022-12-28T00:05:58.846Z,97889.22
2022-12-28T00:08:02.913Z,97878.63
2022-12-28T00:10:06.463Z,97879.44
2022-12-28T00:12:09.237Z,97875.97
2022-12-28T00:14:12.111Z,97868.22
2022-12-28T00:16:25.223Z,97865.38
2022-12-28T00:18:28.006Z,97857.13
2022-12-28T00:20:30.778Z,97861.44
2022-12-28T00:22:33.466Z,97861.44
2022-12-28T00:24:38.493Z,97856.44
2022-12-28T00:26:41.233Z,97851.66
2022-12-28T00:28:43.910Z,97849.66
2022-12-28T00:30:46.550Z,97843.53
2022-12-28T00:32:49.309Z,97843.53
2022-12-28T00:34:52.102Z,97842.34
2022-12-28T00:37:08.300Z,97840.72
2022-12-28T00:39:15.260Z,97837.41
2022-12-28T00:41:19.458Z,97838.72
2022-12-28T00:43:22.600Z,97836.91
2022-12-28T00:45:25.413Z,97841.06
2022-12-28T00:47:28.062Z,97837.75
2022-12-28T00:49:30.743Z,97837.06
2022-12-28T00:51:33.588Z,97841.72
2022-12-28T00:53:36.369Z,97833.78
2022-12-28T00:55:39.702Z,97840.91
2022-12-28T00:57:43.794Z,97828.66
2022-12-28T00:59:46.487Z,97831.94
2022-12-28T01:01:49.248Z,97831.63
2022-12-28T01:03:52.508Z,97832.78
2022-12-28T01:05:55.366Z,97835.59
2022-12-28T01:07:58.007Z,97835.41
2022-12-28T01:10:00.663Z,97826.66
2022-12-28T01:12:03.378Z,97827.47
2022-12-28T01:14:07.387Z,97825.81
2022-12-28T01:16:14.054Z,97821.16
2022-12-28T01:18:16.874Z,97812.41
2022-12-28T01:20:19.746Z,97811.56
2022-12-28T01:22:22.537Z,97815.22
2022-12-28T01:24:25.199Z,97814.59
2022-12-28T01:26:28.034Z,97824.72
2022-12-28T01:28:30.900Z,97826.72
2022-12-28T01:30:35.021Z,97830.19
2022-12-28T01:32:42.259Z,97830.84
2022-12-28T01:34:44.906Z,97833.13
2022-12-28T01:36:47.398Z,97825.19
2022-12-28T01:38:53.900Z,97824.53
2022-12-28T01:40:56.648Z,97821.25
2022-12-28T01:42:59.321Z,97819.59
2022-12-28T01:45:16.531Z,97814.63
2022-12-28T01:47:27.539Z,97820.59
2022-12-28T01:49:32.798Z,97815.44
2022-12-28T01:51:43.237Z,97817.63
2022-12-28T01:53:46.905Z,97817.63
2022-12-28T01:55:49.984Z,97817.28
2022-12-28T01:57:56.696Z,97811.50
2022-12-28T02:00:03.491Z,97813.97
2022-12-28T02:02:06.538Z,97811.97
2022-12-28T02:04:11.648Z,97812.66
2022-12-28T02:06:14.498Z,97817.00
2022-12-28T02:08:21.436Z,97822.28
2022-12-28T02:10:44.068Z,97821.63
2022-12-28T02:12:48.164Z,97809.22
2022-12-28T02:14:50.931Z,97817.00
2022-12-28T02:16:55.204Z,97812.97
2022-12-28T02:18:58.255Z,97813.63
2022-12-28T02:21:18.974Z,97807.69
2022-12-28T02:23:36.830Z,97809.50
2022-12-28T02:25:57.144Z,97806.03
2022-12-28T02:28:09.277Z,97800.09
2022-12-28T02:30:14.491Z,97799.09
2022-12-28T02:32:30.930Z,97799.91
2022-12-28T02:34:39.493Z,97798.09
2022-12-28T02:36:47.167Z,97793.34
2022-12-28T02:38:55.051Z,97790.88
2022-12-28T02:41:02.650Z,97787.03
2022-12-28T02:43:05.494Z,97779.09
2022-12-28T02:45:34.481Z,97780.09
2022-12-28T02:47:58.986Z,97780.28
2022-12-28T02:50:08.932Z,97780.28
2022-12-28T02:52:22.578Z,97776.81
2022-12-28T02:55:00.582Z,97777.78
2022-12-28T02:57:12.775Z,97777.78
2022-12-28T02:59:38.213Z,97774.28
2022-12-28T03:02:01.653Z,97770.69
2022-12-28T03:04:16.490Z,97764.38
2022-12-28T03:06:48.997Z,97759.22
2022-12-28T03:08:57.288Z,97756.25
2022-12-28T03:11:05.944Z,97760.53
2022-12-28T03:13:32.106Z,97757.06
2022-12-28T03:15:39.339Z,97752.44
2022-12-28T03:18:02.858Z,97749.97
2022-12-28T03:20:30.341Z,97750.97
2022-12-28T03:22:54.604Z,97737.91
2022-12-28T03:25:18.131Z,97746.00
2022-12-28T03:27:41.036Z,97740.88
2022-12-28T03:30:07.050Z,97736.25
2022-12-28T03:32:10.979Z,97732.59
2022-12-28T03:34:14.551Z,97722.00
2022-12-28T03:36:24.149Z,97717.53
2022-12-28T03:38:32.996Z,97724.28
2022-12-28T03:40:45.807Z,97723.66
2022-12-28T03:43:09.670Z,97725.66
2022-12-28T03:45:45.669Z,97721.50
2022-12-28T03:47:45.439Z,97715.56
2022-12-28T03:49:48.375Z,97719.03
2022-12-28T03:51:53.365Z,97719.03
2022-12-28T03:53:56.435Z,97713.75
2022-12-28T03:56:11.336Z,97713.75
2022-12-28T03:58:14.123Z,97700.88
2022-12-28T04:00:17.339Z,97711.28
2022-12-28T04:02:20.144Z,97707.81
2022-12-28T04:04:23.256Z,97700.22
2022-12-28T04:06:26.780Z,97698.22
2022-12-28T04:08:32.283Z,97700.22
2022-12-28T04:10:34.955Z,97699.59
2022-12-28T04:12:37.629Z,97688.31
2022-12-28T04:14:40.264Z,97691.16
2022-12-28T04:16:42.911Z,97693.63
2022-12-28T04:18:45.761Z,97692.78
2022-12-28T04:20:48.641Z,97687.03
2022-12-28T04:22:51.318Z,97687.03
2022-12-28T04:24:55.360Z,97685.03
2022-12-28T04:26:58.112Z,97684.41
2022-12-28T04:29:02.112Z,97686.41
2022-12-28T04:31:07.134Z,97684.75
2022-12-28T04:33:09.850Z,97690.88
2022-12-28T04:35:12.516Z,97688.88
2022-12-28T04:37:15.232Z,97690.34
2022-12-28T04:39:18.531Z,97691.50
2022-12-28T04:41:22.571Z,97687.41
2022-12-28T04:43:25.294Z,97689.41
2022-12-28T04:45:27.980Z,97687.72
2022-12-28T04:47:30.667Z,97686.75
2022-12-28T04:49:33.378Z,97690.22
2022-12-28T04:51:38.296Z,97689.41
2022-12-28T04:53:42.324Z,97681.97
2022-12-28T04:55:45.197Z,97684.81
2022-12-28T04:57:49.439Z,97690.28
2022-12-28T04:59:52.143Z,97678.88
2022-12-28T05:01:54.915Z,97672.56
2022-12-28T05:04:00.527Z,97676.22
2022-12-28T05:06:03.589Z,97674.56
2022-12-28T05:08:06.966Z,97680.88
2022-12-28T05:10:10.227Z,97671.09
2022-12-28T05:12:12.975Z,97681.97
2022-12-28T05:14:17.070Z,97679.97
2022-12-28T05:16:23.882Z,97678.69
2022-12-28T05:18:26.623Z,97679.03
2022-12-28T05:20:29.370Z,97680.69
2022-12-28T05:22:37.702Z,97681.50
2022-12-28T05:24:43.334Z,97676.22
2022-12-28T05:26:46.169Z,97673.75
2022-12-28T05:28:49.173Z,97665.16
2022-12-28T05:30:54.175Z,97655.72
2022-12-28T05:32:56.840Z,97662.53
2022-12-28T05:34:59.490Z,97673.25
2022-12-28T05:37:02.168Z,97676.09
2022-12-28T05:39:05.646Z,97667.97
2022-12-28T05:41:10.369Z,97669.59
2022-12-28T05:43:13.053Z,97673.75
2022-12-28T05:45:15.820Z,97673.09
2022-12-28T05:47:19.831Z,97667.13
2022-12-28T05:49:22.585Z,97672.25
2022-12-28T05:51:27.876Z,97672.94
2022-12-28T05:53:31.340Z,97662.81
2022-12-28T05:55:34.007Z,97662.63
2022-12-28T05:57:36.685Z,97656.03
2022-12-28T05:59:39.362Z,97651.75
2022-12-28T06:01:45.092Z,97655.41
2022-12-28T06:03:54.441Z,97652.75
2022-12-28T06:05:57.240Z,97649.75
2022-12-28T06:08:01.130Z,97650.09
2022-12-28T06:10:04.396Z,97653.72
2022-12-28T06:12:07.421Z,97645.97
2022-12-28T06:14:10.348Z,97646.66
2022-12-28T06:16:16.578Z,97645.63
2022-12-28T06:18:19.533Z,97646.09
2022-12-28T06:20:23.579Z,97639.63
2022-12-28T06:22:26.303Z,97638.44
2022-12-28T06:24:28.976Z,97639.44
2022-12-28T06:26:33.615Z,97642.44
2022-12-28T06:28:38.193Z,97647.38
2022-12-28T06:30:40.910Z,97641.25
2022-12-28T06:32:43.581Z,97644.91
2022-12-28T06:34:46.349Z,97633.50
2022-12-28T06:36:52.521Z,97635.88
2022-12-28T06:38:57.592Z,97637.53
2022-12-28T06:41:13.273Z,97629.75
2022-12-28T06:43:17.419Z,97635.38
2022-12-28T06:45:19.905Z,97641.50
2022-12-28T06:47:22.632Z,97634.38
2022-12-28T06:49:25.326Z,97632.56
2022-12-28T06:51:29.365Z,97631.72
2022-12-28T06:53:35.643Z,97633.56
2022-12-28T06:55:38.427Z,97636.06
2022-12-28T06:57:41.101Z,97628.44
2022-12-28T06:59:44.151Z,97630.91
2022-12-28T07:01:46.918Z,97624.97
2022-12-28T07:03:51.540Z,97630.44
2022-12-28T07:05:54.311Z,97628.44
2022-12-28T07:07:57.061Z,97624.34
2022-12-28T07:10:01.109Z,97622.50
2022-12-28T07:12:03.799Z,97629.63
2022-12-28T07:14:06.704Z,97633.28
2022-12-28T07:16:12.801Z,97635.91
2022-12-28T07:18:17.093Z,97635.28
2022-12-28T07:20:19.792Z,97640.91
2022-12-28T07:22:22.421Z,97634.78
2022-12-28T07:24:25.106Z,97630.31
2022-12-28T07:26:32.216Z,97626.03
2022-12-28T07:28:37.078Z,97627.03
2022-12-28T07:30:40.136Z,97618.91
2022-12-28T07:32:42.881Z,97625.03
2022-12-28T07:34:45.545Z,97619.91
2022-12-28T07:36:49.842Z,97620.91
2022-12-28T07:38:53.327Z,97615.63
2022-12-28T07:41:02.161Z,97607.34
2022-12-28T07:43:07.087Z,97605.53
2022-12-28T07:45:12.730Z,97600.88
2022-12-28T07:47:16.658Z,97609.81
2022-12-28T07:49:19.393Z,97603.53
2022-12-28T07:51:23.914Z,97605.81
2022-12-28T07:53:26.762Z,97610.09
2022-12-28T07:55:31.913Z,97602.97
2022-12-28T07:57:35.317Z,97605.63
2022-12-28T07:59:39.364Z,97604.63
2022-12-28T08:01:42.105Z,97602.34
2022-12-28T08:03:44.972Z,97603.34
2022-12-28T08:05:47.724Z,97599.69
2022-12-28T08:07:50.580Z,97602.34
2022-12-28T08:09:53.325Z,97600.69
2022-12-28T08:11:56.133Z,97598.06
2022-12-28T08:14:00.206Z,97598.31
2022-12-28T08:16:04.990Z,97594.53
2022-12-28T08:18:08.105Z,97603.63
2022-12-28T08:20:11.528Z,97606.75
2022-12-28T08:22:14.207Z,97604.13
2022-12-28T08:24:19.020Z,97597.19
2022-12-28T08:26:24.275Z,97603.44
2022-12-28T08:28:26.965Z,97607.59
2022-12-28T08:30:29.719Z,97607.41
2022-12-28T08:32:33.937Z,97605.56
2022-12-28T08:34:36.590Z,97613.34
2022-12-28T08:36:39.400Z,97615.53
2022-12-28T08:38:43.167Z,97620.00
2022-12-28T08:40:45.888Z,97613.97
2022-12-28T08:42:50.053Z,97613.16
2022-12-28T08:44:52.725Z,97616.81
2022-12-28T08:46:56.126Z,97619.28
2022-12-28T08:49:01.173Z,97615.63
2022-12-28T08:51:05.898Z,97620.91
2022-12-28T08:53:08.625Z,97620.44
2022-12-28T08:55:11.695Z,97610.69
2022-12-28T08:57:14.438Z,97618.44
2022-12-28T08:59:19.700Z,97619.28
2022-12-28T09:01:25.166Z,97618.91
2022-12-28T09:03:28.031Z,97611.78
2022-12-28T09:05:37.488Z,97607.16
2022-12-28T09:07:42.102Z,97617.38
2022-12-28T09:09:44.802Z,97610.44
2022-12-28T09:11:47.564Z,97618.22
2022-12-28T09:13:50.803Z,97622.88
2022-12-28T09:15:58.159Z,97614.09
2022-12-28T09:18:01.089Z,97614.09
2022-12-28T09:20:03.971Z,97606.34
2022-12-28T09:22:08.026Z,97609.81
2022-12-28T09:24:10.672Z,97611.63
2022-12-28T09:26:15.497Z,97610.31
2022-12-28T09:28:18.228Z,97618.44
2022-12-28T09:30:21.022Z,97616.97
2022-12-28T09:32:23.698Z,97619.63
2022-12-28T09:34:41.940Z,97620.81
2022-12-28T09:36:45.595Z,97618.16
2022-12-28T09:38:51.106Z,97618.00
2022-12-28T09:40:53.952Z,97615.16
2022-12-28T09:42:56.665Z,97617.63
2022-12-28T09:45:04.075Z,97609.03
2022-12-28T09:47:17.420Z,97604.75
2022-12-28T09:49:25.332Z,97613.34
2022-12-28T09:51:34.704Z,97613.63
2022-12-28T09:53:37.780Z,97616.09
2022-12-28T09:55:54.610Z,97618.25
2022-12-28T09:57:59.797Z,97612.31
2022-12-28T10:00:03.894Z,97609.88
2022-12-28T10:02:18.691Z,97610.31
2022-12-28T10:04:21.442Z,97607.97
2022-12-28T10:06:26.851Z,97614.91
2022-12-28T10:08:30.623Z,97608.16
2022-12-28T10:10:34.377Z,97608.50
2022-12-28T10:12:38.399Z,97609.69
2022-12-28T10:14:41.305Z,97608.03
2022-12-28T10:16:48.438Z,97603.38
2022-12-28T10:18:51.374Z,97601.94
2022-12-28T10:20:55.040Z,97594.44
2022-12-28T10:22:59.672Z,97598.41
2022-12-28T10:25:02.405Z,97594.09
2022-12-28T10:27:08.080Z,97585.88
2022-12-28T10:29:19.153Z,97580.09
2022-12-28T10:31:33.527Z,97577.28
2022-12-28T10:33:40.217Z,97575.63
2022-12-28T10:35:49.748Z,97572.00
2022-12-28T10:37:53.493Z,97562.03
2022-12-28T10:39:59.349Z,97569.97
2022-12-28T10:42:03.430Z,97561.41
2022-12-28T10:44:41.885Z,97552.81
2022-12-28T10:46:53.694Z,97553.81
2022-12-28T10:48:59.812Z,97547.88
2022-12-28T10:51:13.385Z,97550.34
2022-12-28T10:53:33.453Z,97545.88
2022-12-28T10:55:36.413Z,97544.69
2022-12-28T10:58:02.988Z,97535.75
2022-12-28T11:00:22.775Z,97524.34
2022-12-28T11:02:28.680Z,97525.63
2022-12-28T11:04:31.585Z,97519.06
2022-12-28T11:06:35.865Z,97508.28
2022-12-28T11:08:39.532Z,97512.13
2022-12-28T11:10:42.433Z,97498.69
2022-12-28T11:12:46.201Z,97499.53
2022-12-28T11:14:48.911Z,97500.53
2022-12-28T11:16:53.329Z,97499.97
2022-12-28T11:18:56.081Z,97492.66
2022-12-28T11:20:59.107Z,97488.56
2022-12-28T11:23:02.449Z,97480.63
2022-12-28T11:25:07.590Z,97486.75
2022-12-28T11:27:14.638Z,97483.75
2022-12-28T11:29:20.521Z,97492.31
2022-12-28T11:31:27.496Z,97484.19
2022-12-28T11:33:36.710Z,97486.03
2022-12-28T11:35:41.340Z,97473.78
2022-12-28T11:37:50.247Z,97466.69
2022-12-28T11:39:53.890Z,97464.66
2022-12-28T11:42:28.052Z,97464.47
2022-12-28T11:44:44.099Z,97458.19
2022-12-28T11:47:02.225Z,97456.16
2022-12-28T11:49:23.381Z,97458.66
2022-12-28T11:51:27.804Z,97447.06
2022-12-28T11:53:53.150Z,97441.38
2022-12-28T11:56:07.951Z,97442.22
2022-12-28T11:58:43.871Z,97437.72
2022-12-28T12:00:50.121Z,97433.91
2022-12-28T12:02:54.152Z,97425.75
2022-12-28T12:04:58.150Z,97412.53
2022-12-28T12:07:31.743Z,97414.16
2022-12-28T12:09:43.675Z,97406.69
2022-12-28T12:11:47.477Z,97402.22
2022-12-28T12:13:51.812Z,97402.84
2022-12-28T12:15:59.296Z,97396.34
2022-12-28T12:18:04.648Z,97402.75
2022-12-28T12:20:16.051Z,97394.44
2022-12-28T12:22:23.849Z,97388.13
2022-12-28T12:24:31.665Z,97384.09
2022-12-28T12:26:38.026Z,97378.47
2022-12-28T12:28:47.050Z,97377.66
2022-12-28T12:30:50.574Z,97374.81
2022-12-28T12:32:57.948Z,97365.03
2022-12-28T12:35:05.061Z,97357.44
2022-12-28T12:37:26.054Z,97354.94
2022-12-28T12:39:45.944Z,97347.66
2022-12-28T12:42:02.639Z,97348.31
2022-12-28T12:44:20.301Z,97343.34
2022-12-28T12:47:03.712Z,97336.41
2022-12-28T12:49:31.646Z,97328.75
2022-12-28T12:51:39.821Z,97328.38
2022-12-28T12:53:59.929Z,97318.22
2022-12-28T12:56:10.067Z,97319.69
2022-12-28T12:58:22.365Z,97315.03
2022-12-28T13:00:31.343Z,97312.00
2022-12-28T13:02:54.325Z,97311.16
2022-12-28T13:04:57.437Z,97306.50
2022-12-28T13:07:03.296Z,97301.81
2022-12-28T13:09:13.487Z,97301.66
2022-12-28T13:11:17.736Z,97296.97
2022-12-28T13:13:28.168Z,97291.06
2022-12-28T13:15:32.160Z,97289.03
2022-12-28T13:17:35.321Z,97282.91
2022-12-28T13:19:38.233Z,97278.63
2022-12-28T13:21:43.235Z,97278.63
2022-12-28T13:23:46.479Z,97272.31
2022-12-28T13:25:53.705Z,97268.03
2022-12-28T13:27:57.519Z,97269.47
2022-12-28T13:30:02.497Z,97260.31
2022-12-28T13:32:05.719Z,97262.75
2022-12-28T13:34:18.417Z,97250.13
2022-12-28T13:36:21.204Z,97247.50
2022-12-28T13:38:23.878Z,97246.47
2022-12-28T13:40:27.010Z,97240.56
2022-12-28T13:42:41.681Z,97236.06
2022-12-28T13:44:46.629Z,97232.41
2022-12-28T13:46:54.400Z,97230.56
2022-12-28T13:48:59.441Z,97232.41
2022-12-28T13:51:02.800Z,97222.63
2022-12-28T13:53:12.092Z,97221.63
2022-12-28T13:55:18.836Z,97223.63
2022-12-28T13:59:53.120Z,97217.97
2022-12-28T14:01:57.219Z,97212.03
2022-12-28T14:04:33.566Z,97215.69
2022-12-28T14:06:26.769Z,97206.91
2022-12-28T14:08:34.880Z,97200.59
2022-12-28T14:10:37.921Z,97196.13
2022-12-28T14:12:41.284Z,97193.88
2022-12-28T14:14:45.221Z,97190.41
2022-12-28T14:16:50.761Z,97187.56
2022-12-28T14:18:54.099Z,97183.88
2022-12-28T14:20:59.220Z,97184.69
2022-12-28T14:23:20.364Z,97175.94
2022-12-28T14:25:24.718Z,97182.72
2022-12-28T14:27:27.853Z,97176.59
2022-12-28T14:29:34.051Z,97172.53
2022-12-28T14:31:36.906Z,97181.28
2022-12-28T14:33:53.133Z,97169.69
2022-12-28T14:36:00.032Z,97173.34
2022-12-28T14:38:03.016Z,97169.88
2022-12-28T14:40:08.050Z,97170.06
2022-12-28T14:42:20.782Z,97176.00
2022-12-28T14:44:29.477Z,97170.50
2022-12-28T14:46:35.139Z,97163.16
2022-12-28T14:48:40.587Z,97168.09
2022-12-28T14:50:57.287Z,97166.69
2022-12-28T14:53:09.147Z,97163.22
2022-12-28T14:55:30.324Z,97160.97
2022-12-28T14:57:39.914Z,97166.63
2022-12-28T14:59:48.400Z,97173.75
2022-12-28T15:01:52.539Z,97177.84
2022-12-28T15:03:57.408Z,97168.91
2022-12-28T15:06:02.456Z,97172.56
2022-12-28T15:08:05.931Z,97173.41
2022-12-28T15:10:10.129Z,97168.47
2022-12-28T15:12:15.216Z,97154.19
2022-12-28T15:14:17.857Z,97157.88
2022-12-28T15:16:23.195Z,97158.25
2022-12-28T15:18:26.932Z,97158.25
2022-12-28T15:20:29.814Z,97157.88
2022-12-28T15:22:34.057Z,97152.19
2022-12-28T15:24:37.416Z,97146.91
2022-12-28T15:26:40.209Z,97128.97
2022-12-28T15:28:43.133Z,97127.31
2022-12-28T15:30:46.064Z,97141.59
2022-12-28T15:32:48.776Z,97134.47
2022-12-28T15:34:51.470Z,97129.97
2022-12-28T15:36:54.195Z,97137.47
2022-12-28T15:38:59.323Z,97127.28
2022-12-28T15:41:01.993Z,97147.25
2022-12-28T15:43:04.655Z,97148.06
2022-12-28T15:45:10.360Z,97144.38
2022-12-28T15:47:13.160Z,97127.28
2022-12-28T15:49:15.925Z,97132.56
2022-12-28T15:51:18.617Z,97121.78
2022-12-28T15:53:21.641Z,97120.75
2022-12-28T15:55:25.697Z,97120.38
2022-12-28T15:57:28.875Z,97116.88
2022-12-28T15:59:31.615Z,97112.44
2022-12-28T16:01:34.951Z,97107.75
2022-12-28T16:03:37.914Z,97109.38
2022-12-28T16:05:40.579Z,97107.75
2022-12-28T16:07:43.252Z,97110.41
2022-12-28T16:09:46.322Z,97110.41
2022-12-28T16:11:55.103Z,97107.75
2022-12-28T16:13:59.992Z,97108.97
2022-12-28T16:16:05.789Z,97102.06
2022-12-28T16:18:08.591Z,97106.94
2022-12-28T16:20:12.210Z,97103.94
2022-12-28T16:22:14.922Z,97102.72
2022-12-28T16:24:18.315Z,97099.84
2022-12-28T16:26:21.198Z,97107.19
2022-12-28T16:28:25.297Z,97108.22
2022-12-28T16:30:28.117Z,97100.06
2022-12-28T16:32:30.859Z,97098.03
2022-12-28T16:34:33.509Z,97101.50
2022-12-28T16:36:36.325Z,97100.28
2022-12-28T16:38:39.080Z,97096.59
2022-12-28T16:40:41.751Z,97102.09
2022-12-28T16:42:45.899Z,97098.44
2022-12-28T16:44:50.813Z,97096.41
2022-12-28T16:46:56.452Z,97102.09
2022-12-28T16:49:00.809Z,97100.06
2022-12-28T16:51:03.488Z,97100.88
2022-12-28T16:53:06.493Z,97103.38
2022-12-28T16:55:09.556Z,97100.88
2022-12-28T16:57:13.035Z,97099.88
2022-12-28T16:59:17.826Z,97099.69
2022-12-28T17:01:21.991Z,97103.16
2022-12-28T17:03:25.398Z,97101.34
2022-12-28T17:05:28.167Z,97111.94
2022-12-28T17:07:30.874Z,97106.63
2022-12-28T17:09:33.585Z,97108.47
2022-12-28T17:11:36.338Z,97112.97
2022-12-28T17:13:39.521Z,97112.97
2022-12-28T17:15:43.028Z,97110.31
2022-12-28T17:17:47.058Z,97101.34
2022-12-28T17:19:50.074Z,97102.16
2022-12-28T17:21:52.757Z,97100.13
2022-12-28T17:23:55.594Z,97097.66
2022-12-28T17:25:58.277Z,97099.50
2022-12-28T17:28:01.373Z,97097.66
2022-12-28T17:30:04.801Z,97098.91
2022-12-28T17:32:08.749Z,97101.34
2022-12-28T17:34:12.810Z,97095.84
2022-12-28T17:36:15.889Z,97090.53
2022-12-28T17:38:18.908Z,97088.69
2022-12-28T17:40:21.581Z,97091.19
2022-12-28T17:42:24.359Z,97076.91
2022-12-28T17:44:27.147Z,97082.00
2022-12-28T17:46:31.501Z,97071.59
2022-12-28T17:48:34.302Z,97076.50
2022-12-28T17:50:42.706Z,97067.94
2022-12-28T17:52:45.898Z,97075.69
2022-12-28T17:54:48.738Z,97067.53
2022-12-28T17:56:51.417Z,97074.66
2022-12-28T17:58:56.656Z,97063.63
2022-12-28T18:00:59.824Z,97075.69
2022-12-28T18:03:02.725Z,97073.03
2022-12-28T18:05:05.509Z,97063.03
2022-12-28T18:07:09.532Z,97069.16
2022-12-28T18:09:12.148Z,97064.66
2022-12-28T18:11:15.084Z,97072.41
2022-12-28T18:13:18.764Z,97068.94
2022-12-28T18:15:21.649Z,97068.13
2022-12-28T18:17:24.255Z,97071.41
2022-12-28T18:19:27.074Z,97066.91
2022-12-28T18:21:29.926Z,97066.09
2022-12-28T18:23:34.262Z,97063.06
2022-12-28T18:25:37.894Z,97067.56
2022-12-28T18:27:40.655Z,97057.31
2022-12-28T18:29:45.048Z,97064.47
2022-12-28T18:31:47.837Z,97065.47
2022-12-28T18:33:50.824Z,97057.97
2022-12-28T18:35:53.589Z,97043.47
2022-12-28T18:37:56.432Z,97044.09
2022-12-28T18:40:00.575Z,97052.03
2022-12-28T18:42:03.455Z,97042.44
2022-12-28T18:44:07.558Z,97041.84
2022-12-28T18:46:10.733Z,97046.50
2022-12-28T18:48:13.455Z,97042.03
2022-12-28T18:50:16.459Z,97038.53
2022-12-28T18:52:20.705Z,97037.72
2022-12-28T18:54:24.495Z,97040.22
2022-12-28T18:56:28.536Z,97035.50
2022-12-28T18:58:33.320Z,97034.69
2022-12-28T19:00:36.087Z,97032.25
2022-12-28T19:02:39.047Z,97033.69
2022-12-28T19:04:42.030Z,97022.47
2022-12-28T19:06:45.521Z,97024.47
2022-12-28T19:08:48.359Z,97015.69
2022-12-28T19:10:51.062Z,97019.38
2022-12-28T19:12:56.797Z,97029.38
2022-12-28T19:14:59.528Z,97024.25
2022-12-28T19:17:02.255Z,97016.31
2022-12-28T19:19:05.141Z,97018.97
2022-12-28T19:21:19.174Z,97005.91
2022-12-28T19:23:22.309Z,97007.53
2022-12-28T19:25:25.093Z,97002.44
2022-12-28T19:27:27.787Z,97009.56
2022-12-28T19:29:32.312Z,97016.72
2022-12-28T19:31:35.798Z,97007.13
2022-12-28T19:33:38.522Z,97010.19
2022-12-28T19:35:42.335Z,97009.56
2022-12-28T19:37:45.105Z,97016.50
2022-12-28T19:39:50.217Z,96998.75
2022-12-28T19:41:54.940Z,97010.19
2022-12-28T19:43:57.887Z,97005.91
2022-12-28T19:46:06.798Z,97005.91
2022-12-28T19:48:09.516Z,96999.78
2022-12-28T19:50:12.237Z,96990.00
2022-12-28T19:52:14.913Z,96998.97
2022-12-28T19:54:18.963Z,96983.06
2022-12-28T19:56:22.564Z,96993.66
2022-12-28T19:58:25.487Z,96989.19
2022-12-28T20:00:28.234Z,96984.06
2022-12-28T20:02:32.694Z,96997.34
2022-12-28T20:04:35.542Z,96995.72
2022-12-28T20:06:39.317Z,96999.38
2022-12-28T20:08:46.334Z,97004.69
2022-12-28T20:10:56.045Z,96997.72
2022-12-28T20:12:58.810Z,96998.53
2022-12-28T20:15:01.570Z,96995.25
2022-12-28T20:17:04.260Z,96996.91
2022-12-28T20:19:09.479Z,96999.75
2022-12-28T20:21:20.858Z,96994.44
2022-12-28T20:23:24.259Z,96998.13
2022-12-28T20:25:26.982Z,96992.81
2022-12-28T20:27:30.416Z,97001.78
2022-12-28T20:29:33.363Z,96992.22
2022-12-28T20:31:36.048Z,96997.72
2022-12-28T20:33:39.606Z,96995.88
2022-12-28T20:35:44.023Z,96993.22
2022-12-28T20:37:46.662Z,96994.25
2022-12-28T20:39:49.305Z,96996.91
2022-12-28T20:42:09.558Z,96990.97
2022-12-28T20:44:14.173Z,96998.94
2022-12-28T20:46:16.900Z,96993.63
2022-12-28T20:48:19.667Z,96988.34
2022-12-28T20:50:22.575Z,96995.66
2022-12-28T20:52:26.717Z,96999.31
2022-12-28T20:54:29.466Z,96994.81
2022-12-28T20:56:32.261Z,96981.16
2022-12-28T20:58:35.511Z,96982.78
2022-12-28T21:00:39.659Z,96987.06
2022-12-28T21:02:42.283Z,96983.00
2022-12-28T21:04:44.953Z,96980.16
2022-12-28T21:06:47.646Z,96982.19
2022-12-28T21:08:51.650Z,96982.78
2022-12-28T21:10:54.567Z,96980.97
2022-12-28T21:12:57.315Z,96987.50
2022-12-28T21:14:59.953Z,96992.78
2022-12-28T21:17:02.607Z,96989.31
2022-12-28T21:19:05.279Z,96986.88
2022-12-28T21:21:14.059Z,96990.34
2022-12-28T21:23:17.192Z,96990.34
2022-12-28T21:25:21.225Z,96994.00
2022-12-28T21:27:23.924Z,96989.72
2022-12-28T21:29:26.727Z,96990.53
2022-12-28T21:31:29.395Z,96990.34
2022-12-28T21:33:32.133Z,96987.91
2022-12-28T21:35:35.072Z,96992.38
2022-12-28T21:37:37.920Z,96987.06
2022-12-28T21:39:40.580Z,96988.09
2022-12-28T21:41:50.322Z,96981.13
2022-12-28T21:43:53.105Z,96984.63
2022-12-28T21:46:01.937Z,96981.34
2022-12-28T21:48:05.920Z,96983.16
2022-12-28T21:50:10.949Z,96984.19
2022-12-28T21:52:13.590Z,96992.75
2022-12-28T21:54:17.962Z,96995.41
2022-12-28T21:56:20.619Z,96997.25
2022-12-28T21:58:25.126Z,96993.78
2022-12-28T22:00:45.405Z,96998.06
2022-12-28T22:03:20.302Z,96994.59
2022-12-28T22:05:40.636Z,97003.56
2022-12-28T22:07:43.331Z,97001.13
2022-12-28T22:10:04.036Z,97002.94
2022-12-28T22:12:25.246Z,97002.94
2022-12-28T22:14:29.436Z,96999.69
2022-12-28T22:16:32.400Z,97005.00
2022-12-28T22:19:04.107Z,97020.06
2022-12-28T22:20:57.764Z,97018.25
2022-12-28T22:23:02.194Z,97020.88
2022-12-28T22:25:05.430Z,97010.28
2022-12-28T22:27:08.246Z,97006.00
2022-12-28T22:29:10.948Z,97005.81
2022-12-28T22:31:15.130Z,97011.09
2022-12-28T22:33:17.836Z,97005.59
2022-12-28T22:35:20.639Z,97003.16
2022-12-28T22:37:23.343Z,96997.66
2022-12-28T22:39:26.367Z,96999.69
2022-12-28T22:41:29.227Z,96999.47
